Clearfield, PA (16830)

1:18 AM EDT on August 25, 2016 (GMT -0400)
Twinoaks | | Change Station

Elev 1493 ft 40.99 °N, 78.53 °W | Updated 8 minutes ago

Clear
Clear
62.4 °F
Feels Like 62.4 °F
N
1.1
Wind Variable Wind from NNW

Today
High -- | Low -- °F
--% Chance of Precip.
Yesterday
High -- | Low -- °F
Precip. -- in
Pressure 30.10 in
Visibility 10.0 miles
Clouds Clear
Dew Point 59 °F
Humidity 89%
Rainfall 0.00 in
Snow Depth Not available.
6:33 AM 7:56 PM
Waning Gibbous, 49% visible
METAR KFIG 250454Z AUTO 34003KT 10SM CLR 18/17 A3013 RMK AO2 SLP193 T01780167 403060117
Pressure 30.10 in
Visibility 10.0 miles
Clouds Clear
Dew Point 59 °F
Humidity 89%
Rainfall 0.00 in
Snow Depth Not available.
6:33 AM 7:56 PM
Waning Gibbous, 49% visible
METAR KFIG 250454Z AUTO 34003KT 10SM CLR 18/17 A3013 RMK AO2 SLP193 T01780167 403060117

10-Day Weather Forecast

Almanac

Astronomy

Aug. 25, 2016 Rise Set
Actual Time
Civil Twilight
Nautical Twilight
Astronomical Twilight
Moon
Length of Visible Light
Length of Day
Tomorrow will be .
, % of the Moon is Illuminated

Today's Extremes

State Highs State Lows

Community

WunderPhotos

Upload Photos

1,934,799 photos uploaded!

WunderBlog® & News

Nearby

Air Quality

  Air Quality AQ Index Pollutant
Not available.

Snow Depth

Station Depth Elevation

Earthquake Activity

City Distance Mag. Time & Date
Minimum magnitude displayed is 2.5.

Coastal Water Temperatures

Place Temperature

Stations

Nearby Weather Stations

Station Location Temp. Windchill Dew Point Humidity Wind Precip. Elev Updated Type
                   

Watches & Warnings

There are currently no watches in effect.